Plato, MN (55370)

3:01 PM CST on February 20, 2017 (GMT -0600)
Outside Hamburg | | Change Station

Elev 991 ft 44.72 °N, 93.99 °W | Updated 22 seconds ago

Rain
Rain
51.9 °F
Feels Like 51.9 °F
N
7.0
Wind Variable Wind from South

Today
High -- | Low -- °F
--% Chance of Precip.
Yesterday
High -- | Low -- °F
Precip. -- in
Pressure 29.65 in
Visibility 2.5 miles
Clouds Overcast 400 ft
Dew Point 51 °F
Humidity 98%
Rainfall 0.81 in
Snow Depth Not available.
7:08 AM 5:51 PM
Waning Crescent, 31% visible
METAR KGYL 202056Z AUTO 18008KT 2 1/2SM RA OVC004 12/12 A2965 RMK AO2 P0013 60039 T01160117
Pressure 29.65 in
Visibility 2.5 miles
Clouds Overcast 400 ft
Dew Point 51 °F
Humidity 98%
Rainfall 0.81 in
Snow Depth Not available.
7:08 AM 5:51 PM
Waning Crescent, 31% visible
METAR KGYL 202056Z AUTO 18008KT 2 1/2SM RA OVC004 12/12 A2965 RMK AO2 P0013 60039 T01160117

Get Your Daily Forecast Email!

Thanks for signing up!

Be on the lookout for a verification email in your inbox.

You'll start receiving the daily forecast at 8 AM.

×

10-Day Weather Forecast

Almanac

Astronomy

Feb. 20, 2017 Rise Set
Actual Time
Civil Twilight
Nautical Twilight
Astronomical Twilight
Moon
Length of Visible Light
Length of Day
Tomorrow will be .
, % of the Moon is Illuminated

Today's Extremes

State Highs State Lows

Community

WunderPhotos

Upload Photos

1,962,540 photos uploaded!

WunderBlog® & News

Nearby

Air Quality

  Air Quality AQ Index Pollutant
Not available.

Snow Depth

Station Depth Elevation

Earthquake Activity

City Distance Mag. Time & Date
Minimum magnitude displayed is 2.5.

Coastal Water Temperatures

Place Temperature

Stations

Nearby Weather Stations

Station Location Temp. Windchill Dew Point Humidity Wind Precip. Elev Updated Type
                   

Watches & Warnings

There are currently no watches in effect.